Time;durP1;ratioP1;P1;durP2;ratioP2;P2;SDS_P1;SDS_P2;PMS_P1;PMS_P2;Temp;Humidity;BMP_temperature;BMP_pressure;BME280_temperature;BME280_humidity;BME280_pressure;Samples;Min_cycle;Max_cycle;Signal;HPM_P1;HPM_P2
2023/07/24 00:02:14;;;;;;;13.60;7.32;;;17.60;99.90;;;17.36;100.00;96561.38;5014312;28;20501;-35
2023/07/24 00:04:40;;;;;;;11.48;6.88;;;17.60;99.90;;;17.43;100.00;96635.53;5014733;28;20056;-35
2023/07/24 00:07:05;;;;;;;10.45;6.43;;;17.50;99.90;;;17.32;100.00;96620.38;5018600;28;20029;-35
2023/07/24 00:09:32;;;;;;;10.80;6.80;;;17.50;99.90;;;17.20;100.00;96592.84;5017720;28;20586;-35
2023/07/24 00:11:57;;;;;;;9.05;5.82;;;17.40;99.90;;;17.15;100.00;96584.34;5022442;28;20106;-35
2023/07/24 00:14:23;;;;;;;9.23;5.28;;;17.30;99.90;;;17.10;100.00;96587.38;5017524;28;20036;-35
2023/07/24 00:16:50;;;;;;;8.45;5.68;;;17.20;99.90;;;17.02;100.00;96572.94;5022932;28;20032;-35
2023/07/24 00:19:16;;;;;;;9.77;6.10;;;17.20;99.90;;;16.93;100.00;96567.34;5017799;28;20052;-35
2023/07/24 00:21:42;;;;;;;11.05;6.25;;;17.20;99.90;;;17.06;100.00;96598.38;5023923;28;20148;-35
2023/07/24 00:24:07;;;;;;;10.40;6.38;;;17.20;99.90;;;16.94;100.00;96557.53;5019574;28;20497;-35
2023/07/24 00:26:33;;;;;;;12.45;6.05;;;17.10;99.90;;;16.95;100.00;96576.06;5015887;28;20087;-35
2023/07/24 00:29:00;;;;;;;9.73;5.97;;;17.10;99.90;;;16.93;100.00;96570.00;5020023;28;20032;-35
2023/07/24 00:31:26;;;;;;;8.50;5.88;;;17.00;99.90;;;16.89;100.00;96551.72;5018289;28;20060;-35
2023/07/24 00:33:52;;;;;;;9.07;5.95;;;17.00;99.90;;;16.84;100.00;96552.06;5021227;28;21072;-35
2023/07/24 00:36:17;;;;;;;10.48;6.35;;;17.00;99.90;;;16.80;100.00;96556.72;5025465;28;20025;-35
2023/07/24 00:38:43;;;;;;;8.00;5.70;;;16.90;99.90;;;16.75;100.00;96531.44;5026646;28;20159;-35
2023/07/24 00:41:09;;;;;;;9.07;6.22;;;17.00;99.90;;;16.72;100.00;96527.16;5025336;28;20033;-35
2023/07/24 00:43:35;;;;;;;9.07;6.22;;;16.90;99.90;;;16.74;100.00;96538.56;5027260;28;20075;-35
2023/07/24 00:46:01;;;;;;;8.93;6.13;;;16.90;99.90;;;16.58;100.00;96519.38;5022926;28;20049;-35
2023/07/24 00:48:27;;;;;;;13.38;6.18;;;16.80;99.90;;;16.53;100.00;96522.41;5018262;28;20032;-35
2023/07/24 00:50:54;;;;;;;10.02;6.50;;;16.70;99.90;;;16.45;100.00;96535.41;5021645;28;20033;-35
2023/07/24 00:53:20;;;;;;;13.63;6.75;;;16.60;99.90;;;16.38;100.00;96529.72;5017477;28;20040;-35
2023/07/24 00:55:46;;;;;;;8.80;5.70;;;16.50;99.90;;;16.33;100.00;96525.69;5024086;28;20598;-35
2023/07/24 00:58:12;;;;;;;10.73;5.68;;;16.50;99.90;;;16.18;100.00;96503.72;5026625;28;20033;-35
2023/07/24 01:00:39;;;;;;;9.70;6.40;;;16.40;99.90;;;16.23;100.00;96518.38;5018461;28;21269;-35
2023/07/24 01:03:05;;;;;;;8.40;6.20;;;16.40;99.90;;;16.19;100.00;96514.25;5028472;28;20157;-35
2023/07/24 01:05:31;;;;;;;10.13;6.22;;;16.30;99.90;;;16.01;100.00;96481.03;5023975;28;21330;-35
2023/07/24 01:07:57;;;;;;;9.00;6.22;;;16.30;99.90;;;16.12;100.00;96507.69;5030696;28;20052;-35
2023/07/24 01:10:23;;;;;;;10.68;6.57;;;16.30;99.90;;;16.06;100.00;96502.84;5027007;28;20206;-35
2023/07/24 01:13:15;;;;;;;9.60;5.80;;;16.20;99.90;;;15.99;100.00;96494.44;5017755;28;20758;-35
2023/07/24 01:15:48;;;;;;;;;;;16.10;99.90;;;15.91;100.00;96483.50;5017359;28;20425;-35
2023/07/24 01:18:17;;;;;;;9.10;6.32;;;16.10;99.90;;;15.89;100.00;96487.25;5028245;28;20047;-35
2023/07/24 01:20:50;;;;;;;9.25;6.68;;;16.00;99.90;;;15.87;100.00;96500.66;5022328;28;20044;-35
2023/07/24 01:23:37;;;;;;;9.73;6.05;;;16.00;99.90;;;15.86;100.00;96487.47;5022074;28;20028;-35
2023/07/24 01:26:02;;;;;;;7.97;5.93;;;16.00;99.90;;;15.86;100.00;96482.16;5024601;28;20041;-35
2023/07/24 01:28:28;;;;;;;10.32;6.05;;;16.00;99.90;;;15.84;100.00;96479.59;5040827;28;20106;-35
2023/07/24 01:30:56;;;;;;;10.90;7.07;;;16.00;99.90;;;15.84;100.00;96477.81;5015381;28;20381;-35
2023/07/24 01:33:22;;;;;;;10.35;6.70;;;16.00;99.90;;;15.82;100.00;96477.06;5019205;28;20037;-35
2023/07/24 01:35:57;;;;;;;9.73;6.28;;;16.00;99.90;;;15.81;100.00;96480.69;5019034;28;20523;-35
2023/07/24 01:38:27;;;;;;;9.30;6.45;;;16.00;99.90;;;15.81;100.00;96486.00;5014331;28;20036;-35
2023/07/24 01:40:54;;;;;;;10.73;6.68;;;16.00;99.90;;;15.82;100.00;96487.69;5020127;28;20608;-35
2023/07/24 01:43:21;;;;;;;10.50;6.53;;;16.00;99.90;;;15.73;100.00;96468.88;5019716;28;20040;-35
2023/07/24 01:45:47;;;;;;;11.30;6.57;;;16.00;99.90;;;15.81;100.00;96487.81;5025290;28;20028;-35
2023/07/24 01:48:13;;;;;;;10.75;6.75;;;15.90;99.90;;;15.77;100.00;96484.53;5023133;28;20555;-35
2023/07/24 01:50:38;;;;;;;8.57;6.50;;;15.90;99.90;;;15.76;100.00;96487.31;5018421;28;20532;-35
2023/07/24 01:53:04;;;;;;;8.68;6.32;;;15.90;99.90;;;15.75;100.00;96489.09;5025473;28;20320;-35
2023/07/24 01:55:30;;;;;;;9.43;6.45;;;15.90;99.90;;;15.74;100.00;96487.41;5019852;28;20022;-35
2023/07/24 01:57:55;;;;;;;8.90;6.47;;;15.90;99.90;;;15.73;100.00;96488.31;5026838;28;20104;-35
2023/07/24 02:00:21;;;;;;;9.02;5.57;;;15.90;99.90;;;15.71;100.00;96476.97;5017710;28;20355;-35
2023/07/24 02:02:47;;;;;;;10.73;6.22;;;15.90;99.90;;;15.70;100.00;96477.06;5022013;28;20033;-35
2023/07/24 02:05:12;;;;;;;9.65;6.00;;;15.90;99.90;;;15.62;100.00;96470.50;5019072;28;20033;-35
2023/07/24 02:07:38;;;;;;;8.27;6.07;;;15.80;99.90;;;15.70;100.00;96477.91;5020068;28;22682;-35
2023/07/24 02:10:04;;;;;;;12.40;6.30;;;15.90;99.90;;;15.62;100.00;96464.34;5018751;28;20610;-35
2023/07/24 02:12:30;;;;;;;9.48;6.35;;;15.90;99.90;;;15.73;100.00;96477.69;5020253;28;20108;-35
2023/07/24 02:14:57;;;;;;;10.88;6.38;;;15.90;99.90;;;15.63;100.00;96444.75;5018257;28;20340;-35
2023/07/24 02:17:23;;;;;;;9.27;6.43;;;15.90;99.90;;;15.68;100.00;96442.63;5024656;28;20485;-35
2023/07/24 02:19:49;;;;;;;10.07;6.28;;;16.00;99.90;;;15.81;100.00;96450.59;5022657;28;20094;-35
2023/07/24 02:22:15;;;;;;;9.02;5.82;;;16.00;99.90;;;15.84;100.00;96459.22;5028049;28;20116;-35
2023/07/24 02:24:41;;;;;;;8.38;6.38;;;16.00;99.90;;;15.76;100.00;96447.44;5023027;28;20127;-35
2023/07/24 02:27:07;;;;;;;10.55;6.70;;;16.00;99.90;;;15.87;100.00;96459.94;5026469;28;20029;-35
2023/07/24 02:29:33;;;;;;;7.95;5.88;;;16.00;99.90;;;15.88;100.00;96465.16;5020191;28;20124;-35
2023/07/24 02:31:59;;;;;;;8.25;5.80;;;16.00;99.90;;;15.92;100.00;96469.28;5019274;28;20136;-35
2023/07/24 02:34:26;;;;;;;8.45;6.07;;;16.10;99.90;;;15.95;100.00;96466.41;5014809;28;20033;-35
2023/07/24 02:36:53;;;;;;;8.18;5.80;;;16.10;99.90;;;16.00;100.00;96463.38;5025097;28;20037;-35
2023/07/24 02:39:20;;;;;;;9.52;6.13;;;16.20;99.90;;;16.02;100.00;96470.31;4998967;28;20339;-35
2023/07/24 02:41:45;;;;;;;9.48;6.25;;;16.20;99.90;;;16.00;100.00;96463.38;5015793;28;20396;-35
2023/07/24 02:44:12;;;;;;;8.85;6.05;;;16.20;99.90;;;16.00;100.00;96452.75;5016808;28;20028;-35
2023/07/24 02:46:37;;;;;;;8.73;6.18;;;16.10;99.90;;;15.97;100.00;96450.31;5025236;28;20060;-35
2023/07/24 02:49:03;;;;;;;8.63;5.97;;;16.20;99.90;;;15.96;100.00;96446.81;5017075;28;20392;-35
2023/07/24 02:51:29;;;;;;;9.60;6.38;;;16.20;99.90;;;15.96;100.00;96440.66;5024383;28;20044;-35
2023/07/24 02:53:55;;;;;;;8.10;5.78;;;16.20;99.90;;;15.93;100.00;96428.41;5018914;28;20099;-35
2023/07/24 02:56:21;;;;;;;11.30;6.45;;;16.10;99.90;;;15.74;100.00;96410.31;5020991;28;20040;-35
2023/07/24 02:58:46;;;;;;;9.40;6.18;;;16.10;99.90;;;15.91;100.00;96440.97;5025116;28;20033;-35
2023/07/24 03:01:14;;;;;;;9.25;5.88;;;16.10;99.90;;;15.91;100.00;96437.47;5028748;28;20055;-35
2023/07/24 03:03:42;;;;;;;10.80;6.43;;;16.10;99.90;;;15.85;100.00;96422.81;5022642;28;20036;-35
2023/07/24 03:06:08;;;;;;;9.10;5.85;;;16.00;99.90;;;15.81;100.00;96427.53;5021448;28;20508;-35
2023/07/24 03:08:34;;;;;;;7.80;5.70;;;16.00;99.90;;;15.77;100.00;96426.06;5025217;28;20047;-35
2023/07/24 03:11:02;;;;;;;9.75;6.00;;;16.00;99.90;;;15.73;100.00;96426.34;5025664;28;20021;-35
2023/07/24 03:13:27;;;;;;;8.68;5.85;;;15.90;99.90;;;15.68;100.00;96428.50;5018161;28;20060;-35
2023/07/24 03:15:57;;;;;;;9.02;5.97;;;15.90;99.90;;;15.66;100.00;96415.31;5026477;28;20079;-35
2023/07/24 03:18:23;;;;;;;8.15;5.78;;;15.80;99.90;;;15.62;100.00;96409.38;5024577;28;20052;-35
2023/07/24 03:20:49;;;;;;;13.90;6.70;;;15.80;99.90;;;15.59;100.00;96396.28;5028381;28;20387;-35
2023/07/24 03:23:15;;;;;;;9.38;6.07;;;15.80;99.90;;;15.54;100.00;96394.94;5024729;28;20071;-35
2023/07/24 03:25:40;;;;;;;8.88;6.15;;;15.70;99.90;;;15.47;100.00;96397.22;5010873;28;20479;-35
2023/07/24 03:28:06;;;;;;;9.43;6.20;;;15.70;99.90;;;15.46;100.00;96416.75;5021607;28;21806;-35
2023/07/24 03:30:32;;;;;;;9.93;5.93;;;15.70;99.90;;;15.49;100.00;96427.19;5009501;28;20463;-35
2023/07/24 03:32:58;;;;;;;8.68;5.78;;;15.60;99.90;;;15.49;100.00;96421.00;5015186;28;20485;-35
2023/07/24 03:35:24;;;;;;;9.60;6.18;;;15.70;99.90;;;15.56;100.00;96416.94;5018151;28;20469;-35
2023/07/24 03:37:50;;;;;;;9.55;6.13;;;15.70;99.90;;;15.58;100.00;96421.19;5023341;28;20572;-35
2023/07/24 03:40:15;;;;;;;8.77;5.90;;;15.70;99.90;;;15.59;100.00;96414.06;5013246;28;20803;-35
2023/07/24 03:42:41;;;;;;;10.85;6.45;;;15.80;99.90;;;15.57;100.00;96408.84;5017548;28;20555;-35
2023/07/24 03:45:08;;;;;;;8.77;5.68;;;15.80;99.90;;;15.59;100.00;96411.41;5016579;28;20029;-35
2023/07/24 03:47:34;;;;;;;9.00;5.93;;;15.70;99.90;;;15.60;100.00;96410.44;5022277;28;20512;-35
2023/07/24 03:50:00;;;;;;;9.60;6.05;;;15.80;99.90;;;15.64;100.00;96411.91;5014158;28;20141;-35
2023/07/24 03:52:25;;;;;;;8.57;5.80;;;15.80;99.90;;;15.69;100.00;96415.09;5011978;28;20035;-35
2023/07/24 03:54:52;;;;;;;7.68;5.65;;;15.90;99.90;;;15.64;100.00;96403.94;5027377;28;20024;-35
2023/07/24 03:57:18;;;;;;;8.68;5.63;;;15.90;99.90;;;15.72;100.00;96393.63;5026359;28;20557;-35
2023/07/24 03:59:44;;;;;;;9.57;6.80;;;16.00;99.90;;;15.83;100.00;96404.31;5031528;28;20089;-35
2023/07/24 04:02:10;;;;;;;9.00;5.80;;;16.00;99.90;;;15.92;100.00;96407.28;5019594;28;20037;-35
2023/07/24 04:04:36;;;;;;;10.65;6.97;;;16.10;99.90;;;16.01;100.00;96407.44;5025676;28;20036;-35
2023/07/24 04:07:02;;;;;;;9.80;6.18;;;16.20;99.90;;;16.11;100.00;96415.56;5030834;28;20036;-35
2023/07/24 04:09:28;;;;;;;9.07;6.00;;;16.30;99.90;;;16.09;100.00;96393.53;5033099;28;20166;-35
2023/07/24 04:11:54;;;;;;;8.55;5.60;;;16.40;99.90;;;16.37;100.00;96415.41;5027987;28;20044;-35
2023/07/24 04:14:20;;;;;;;9.18;6.30;;;16.50;99.90;;;16.46;100.00;96405.91;5032693;28;20545;-35
2023/07/24 04:16:46;;;;;;;7.95;5.75;;;16.60;99.90;;;16.52;100.00;96403.59;5023350;28;20470;-35
2023/07/24 04:19:11;;;;;;;12.73;5.78;;;16.70;99.90;;;16.56;100.00;96397.09;5031455;28;20556;-35
2023/07/24 04:21:37;;;;;;;9.20;6.00;;;16.70;99.90;;;16.64;100.00;96398.31;5004329;28;20039;-35
2023/07/24 04:24:03;;;;;;;9.85;5.70;;;16.80;99.90;;;16.71;100.00;96394.19;5017853;28;20701;-35
2023/07/24 04:26:29;;;;;;;9.10;6.00;;;16.90;99.90;;;16.74;100.00;96389.47;5010139;28;20038;-35
2023/07/24 04:28:54;;;;;;;9.23;6.05;;;16.90;99.90;;;16.70;100.00;96365.88;5015160;28;20033;-35
2023/07/24 04:31:20;;;;;;;10.00;6.32;;;17.00;99.90;;;16.83;100.00;96381.72;5023682;28;20074;-35
2023/07/24 04:33:46;;;;;;;7.60;5.60;;;17.00;99.90;;;16.85;100.00;96362.06;5015250;28;20029;-35
2023/07/24 04:36:11;;;;;;;7.97;4.93;;;17.00;99.90;;;16.95;100.00;96359.50;5016094;28;20800;-35
2023/07/24 04:38:37;;;;;;;9.32;5.78;;;17.10;99.90;;;17.06;100.00;96361.31;5016018;28;20021;-35
2023/07/24 04:41:03;;;;;;;9.02;6.00;;;17.20;99.90;;;17.19;100.00;96364.66;5021006;28;20390;-35
2023/07/24 04:43:29;;;;;;;9.27;6.05;;;17.30;99.90;;;17.24;100.00;96359.81;5018390;28;20523;-35
2023/07/24 04:45:55;;;;;;;7.95;5.82;;;17.40;99.90;;;17.33;100.00;96359.06;5012539;28;20059;-35
2023/07/24 04:48:21;;;;;;;8.90;5.90;;;17.50;99.90;;;17.46;100.00;96352.75;5009182;28;21243;-35
2023/07/24 04:50:46;;;;;;;7.75;5.28;;;17.60;99.90;;;17.50;100.00;96365.72;5001623;28;20729;-35
2023/07/24 04:53:12;;;;;;;10.00;5.88;;;17.70;99.90;;;17.55;100.00;96363.53;5014289;28;20386;-35
2023/07/24 04:55:38;;;;;;;6.95;5.50;;;17.70;99.90;;;17.54;100.00;96355.66;5020410;28;20602;-35
2023/07/24 04:58:03;;;;;;;9.45;5.68;;;17.70;99.90;;;17.58;100.00;96375.75;5021560;28;20041;-35
2023/07/24 05:00:29;;;;;;;8.95;6.15;;;17.70;99.90;;;17.58;100.00;96353.59;5020741;28;20124;-35
2023/07/24 05:02:55;;;;;;;8.25;5.75;;;17.80;99.90;;;17.64;100.00;96353.94;5017704;28;20312;-35
2023/07/24 05:05:20;;;;;;;8.48;5.28;;;17.80;99.90;;;17.68;100.00;96350.03;5021437;28;20041;-35
2023/07/24 05:07:46;;;;;;;8.68;5.65;;;17.90;99.90;;;17.76;100.00;96357.41;5019263;28;20378;-35
2023/07/24 05:10:13;;;;;;;8.48;5.90;;;17.90;99.90;;;17.82;100.00;96354.25;5024679;28;20040;-35
2023/07/24 05:12:42;;;;;;;9.70;5.40;;;18.00;99.90;;;17.84;100.00;96346.13;5015768;28;20501;-35
2023/07/24 05:15:08;;;;;;;10.20;5.85;;;18.00;99.90;;;17.98;100.00;96353.84;5005447;28;21493;-35
2023/07/24 05:17:34;;;;;;;10.00;5.78;;;18.10;99.90;;;18.09;100.00;96347.63;5019839;28;20045;-35
2023/07/24 05:20:00;;;;;;;7.47;5.22;;;18.20;99.90;;;18.19;100.00;96353.00;5022204;28;20342;-35
2023/07/24 05:22:25;;;;;;;7.97;5.38;;;18.30;99.90;;;18.28;100.00;96349.56;5009363;28;20414;-35
2023/07/24 05:24:51;;;;;;;7.72;5.28;;;18.40;99.90;;;18.35;100.00;96355.22;5011246;28;21721;-35
2023/07/24 05:27:17;;;;;;;8.50;5.18;;;18.50;99.90;;;18.36;100.00;96352.44;5014578;28;20037;-35
2023/07/24 05:29:43;;;;;;;8.82;5.72;;;18.60;99.90;;;18.44;100.00;96365.13;5025099;28;20096;-36
2023/07/24 05:32:09;;;;;;;8.60;6.15;;;18.60;99.90;;;18.43;100.00;96374.97;5026257;28;20036;-36
2023/07/24 05:34:35;;;;;;;8.02;6.10;;;18.60;99.90;;;18.43;100.00;96379.44;5016590;28;20037;-37
2023/07/24 05:37:00;;;;;;;8.45;5.53;;;18.60;99.90;;;18.43;100.00;96382.09;5018689;28;20037;-36
2023/07/24 05:39:26;;;;;;;10.07;6.43;;;18.60;99.90;;;18.46;100.00;96397.88;5020842;28;20032;-36
2023/07/24 05:41:52;;;;;;;9.63;5.93;;;18.60;99.90;;;18.47;100.00;96395.06;5023311;28;20107;-37
2023/07/24 05:44:17;;;;;;;10.45;6.40;;;18.60;99.90;;;18.48;100.00;96406.59;5022735;28;20029;-36
2023/07/24 05:46:43;;;;;;;9.50;6.40;;;18.60;99.90;;;18.45;100.00;96398.84;5008076;28;20481;-37
2023/07/24 05:49:09;;;;;;;10.77;7.07;;;18.60;99.90;;;18.52;100.00;96405.38;5027000;28;20033;-36
2023/07/24 05:51:34;;;;;;;8.80;6.57;;;18.70;99.90;;;18.51;100.00;96417.00;5021205;28;20380;-37
2023/07/24 05:54:00;;;;;;;10.57;6.65;;;18.70;99.90;;;18.51;100.00;96417.00;5025975;28;20033;-35
2023/07/24 05:56:26;;;;;;;9.35;5.85;;;18.70;99.90;;;18.54;100.00;96418.56;5023287;28;20390;-37
2023/07/24 05:58:51;;;;;;;8.60;5.47;;;18.70;99.90;;;18.59;100.00;96422.56;5027592;28;20044;-37
2023/07/24 06:01:17;;;;;;;9.27;5.80;;;18.70;99.90;;;18.64;100.00;96422.16;5023314;28;20021;-36
2023/07/24 06:03:43;;;;;;;12.27;6.07;;;18.80;99.90;;;18.66;100.00;96415.72;5026899;28;20052;-37
2023/07/24 06:06:08;;;;;;;10.52;5.97;;;18.80;99.90;;;18.64;100.00;96414.97;5020195;28;20049;-36
2023/07/24 06:08:35;;;;;;;8.43;5.80;;;18.80;99.90;;;18.66;100.00;96417.53;5023217;28;20060;-37
2023/07/24 06:11:01;;;;;;;9.98;5.80;;;18.80;99.90;;;18.67;100.00;96408.56;5032007;28;20029;-37
2023/07/24 06:13:26;;;;;;;10.82;6.95;;;18.80;99.90;;;18.69;100.00;96407.44;5017845;28;20130;-36
2023/07/24 06:15:52;;;;;;;10.63;7.22;;;18.80;99.90;;;18.70;100.00;96408.28;5015117;28;20072;-36
2023/07/24 06:18:18;;;;;;;10.93;6.32;;;18.80;99.90;;;18.77;100.00;96412.13;5010651;28;20044;-36
2023/07/24 06:20:44;;;;;;;9.27;6.03;;;18.90;99.90;;;18.84;100.00;96415.13;5024306;28;20104;-37
2023/07/24 06:23:10;;;;;;;10.35;5.70;;;19.00;99.90;;;18.84;100.00;96412.47;5021882;28;20076;-36
2023/07/24 06:25:35;;;;;;;9.60;6.15;;;19.00;99.90;;;18.95;100.00;96407.06;5020206;28;20033;-37
2023/07/24 06:28:01;;;;;;;10.90;6.38;;;19.10;99.90;;;19.06;100.00;96408.81;5026782;28;20057;-36
2023/07/24 06:30:27;;;;;;;10.38;6.35;;;19.20;99.90;;;19.15;100.00;96399.97;5019339;28;20032;-38
2023/07/24 06:32:52;;;;;;;8.40;5.47;;;19.30;99.90;;;19.19;100.00;96385.34;5020212;28;20025;-36
2023/07/24 06:35:18;;;;;;;8.23;5.97;;;19.40;99.90;;;19.40;100.00;96381.78;5016107;28;20029;-37
2023/07/24 06:37:45;;;;;;;9.57;6.25;;;19.50;99.90;;;19.50;100.00;96377.28;5014507;28;20030;-36
2023/07/24 06:40:11;;;;;;;9.00;5.90;;;19.60;99.90;;;19.61;100.00;96377.19;5015754;28;20121;-36
2023/07/24 06:42:36;;;;;;;9.85;5.60;;;19.80;99.90;;;19.79;100.00;96384.56;5009869;28;20037;-36
2023/07/24 06:45:03;;;;;;;10.68;6.20;;;19.90;99.90;;;19.87;100.00;96376.69;5016010;28;20604;-36
2023/07/24 06:47:28;;;;;;;11.20;6.53;;;20.00;99.90;;;19.96;100.00;96369.66;5022762;28;20122;-36
2023/07/24 06:49:54;;;;;;;10.13;6.70;;;20.10;99.90;;;19.91;100.00;96351.34;5024823;28;20397;-36
2023/07/24 06:52:20;;;;;;;12.05;6.70;;;20.10;99.90;;;19.97;100.00;96372.19;5018020;28;20048;-36
2023/07/24 06:54:45;;;;;;;9.27;5.90;;;20.10;99.90;;;19.95;100.00;96375.97;5014545;28;20630;-37
2023/07/24 06:57:11;;;;;;;11.20;7.00;;;20.10;99.90;;;19.89;100.00;96368.53;5019927;28;20136;-38
2023/07/24 06:59:37;;;;;;;10.18;6.70;;;20.00;99.90;;;19.86;100.00;96358.94;5021873;28;20037;-38
2023/07/24 07:02:03;;;;;;;11.95;7.85;;;20.00;99.90;;;19.81;100.00;96345.13;5022492;28;20075;-38
2023/07/24 07:04:28;;;;;;;11.40;7.28;;;19.90;99.90;;;19.84;100.00;96356.41;5023721;28;20261;-38
2023/07/24 07:06:54;;;;;;;12.60;7.78;;;20.00;99.90;;;19.86;100.00;96350.06;5026996;28;20029;-38
2023/07/24 07:09:20;;;;;;;11.27;7.15;;;20.00;99.90;;;19.85;100.00;96351.91;5017572;28;20099;-38
2023/07/24 07:11:46;;;;;;;9.40;6.25;;;20.00;99.90;;;19.97;100.00;96364.16;5013661;28;20035;-37
2023/07/24 07:14:12;;;;;;;10.63;7.20;;;20.10;99.90;;;20.01;100.00;96364.72;5014819;28;20126;-38
2023/07/24 07:16:38;;;;;;;9.30;6.28;;;20.10;99.90;;;20.02;100.00;96375.28;5009093;28;20025;-37
2023/07/24 07:19:04;;;;;;;10.43;6.85;;;20.20;99.90;;;20.02;100.00;96385.97;5017302;28;20473;-37
2023/07/24 07:21:29;;;;;;;9.65;6.53;;;20.10;99.90;;;20.03;100.00;96382.31;5014282;28;20029;-40
2023/07/24 07:23:55;;;;;;;11.30;6.78;;;20.20;99.90;;;19.99;100.00;96393.44;5017305;28;20398;-41
2023/07/24 07:26:22;;;;;;;9.63;6.18;;;20.20;99.90;;;20.01;100.00;96405.72;5004467;28;20709;-37
2023/07/24 07:28:47;;;;;;;8.10;5.72;;;20.20;99.90;;;20.02;100.00;96407.38;5018487;28;20508;-37
2023/07/24 07:31:13;;;;;;;11.65;7.35;;;20.20;99.90;;;20.02;100.00;96414.56;5010060;28;20037;-37
2023/07/24 07:33:39;;;;;;;10.55;6.35;;;20.20;99.90;;;19.92;100.00;96398.53;5014431;28;20059;-38
2023/07/24 07:36:05;;;;;;;10.32;6.25;;;20.10;99.90;;;20.02;100.00;96417.25;5014537;28;20653;-37
2023/07/24 07:38:32;;;;;;;10.70;6.68;;;20.20;99.90;;;20.02;100.00;96428.78;5009596;28;20033;-37
2023/07/24 07:40:57;;;;;;;10.35;7.28;;;20.10;99.90;;;20.03;100.00;96425.16;5010374;28;20167;-37
2023/07/24 07:43:23;;;;;;;9.38;6.22;;;20.20;99.90;;;20.12;100.00;96425.31;5016670;28;20040;-38
2023/07/24 07:45:49;;;;;;;12.13;6.75;;;20.30;99.90;;;20.26;100.00;96443.63;5013578;28;20048;-38
2023/07/24 07:48:15;;;;;;;9.80;6.45;;;20.30;99.90;;;20.39;100.00;96441.50;5029467;28;20041;-37
2023/07/24 07:50:40;;;;;;;12.43;6.45;;;20.50;99.90;;;20.49;100.00;96449.53;5016603;28;20476;-37
2023/07/24 07:53:06;;;;;;;11.07;7.03;;;20.60;99.90;;;20.55;100.00;96450.81;5018509;28;20025;-38
2023/07/24 07:55:32;;;;;;;10.70;6.43;;;20.70;99.90;;;20.62;100.00;96460.00;5017288;28;20176;-37
2023/07/24 07:57:58;;;;;;;11.38;7.00;;;20.70;99.90;;;20.66;100.00;96453.38;5021487;28;20110;-38
2023/07/24 08:00:23;;;;;;;9.38;6.75;;;20.70;99.90;;;20.65;100.00;96457.03;5013983;28;20029;-37
2023/07/24 08:02:49;;;;;;;10.95;6.85;;;20.70;99.90;;;20.59;100.00;96468.28;5008375;28;20516;-38
2023/07/24 08:05:15;;;;;;;10.57;7.15;;;20.70;99.90;;;20.49;100.00;96478.97;5024811;28;20055;-38
2023/07/24 08:07:41;;;;;;;11.57;7.28;;;20.70;99.90;;;20.48;100.00;96493.38;5017167;28;20420;-37
2023/07/24 08:10:07;;;;;;;10.90;7.03;;;20.60;99.90;;;20.38;100.00;96503.22;5015910;28;20082;-37
2023/07/24 08:12:33;;;;;;;10.15;6.45;;;20.50;99.90;;;20.28;100.00;96497.88;5023238;28;20082;-37
2023/07/24 08:14:59;;;;;;;9.65;6.40;;;20.40;99.90;;;20.20;100.00;96485.16;5022783;28;20064;-39
2023/07/24 08:17:25;;;;;;;12.02;7.50;;;20.30;99.90;;;20.11;100.00;96477.13;5020801;28;21854;-38
2023/07/24 08:19:50;;;;;;;10.23;6.57;;;20.20;99.90;;;19.98;100.00;96474.72;5009000;28;20029;-38
2023/07/24 08:22:16;;;;;;;11.35;7.00;;;20.10;99.90;;;19.81;100.00;96469.06;5014240;28;20039;-40
2023/07/24 08:24:42;;;;;;;11.65;6.90;;;19.90;99.90;;;19.62;100.00;96469.78;5004460;28;20047;-38
2023/07/24 08:27:07;;;;;;;10.57;7.53;;;19.80;99.90;;;19.44;100.00;96460.72;5016957;28;20040;-38
2023/07/24 08:29:35;;;;;;;11.77;7.15;;;19.60;99.90;;;19.25;100.00;96437.41;5017731;28;20060;-38
2023/07/24 08:32:01;;;;;;;14.48;7.93;;;19.40;99.90;;;19.04;100.00;96429.44;5011381;28;20041;-38
2023/07/24 08:34:26;;;;;;;9.95;7.20;;;19.20;99.90;;;18.92;100.00;96414.50;5012942;28;20040;-38
2023/07/24 08:36:52;;;;;;;9.70;6.60;;;19.10;99.90;;;18.84;100.00;96396.44;5011047;28;20033;-39
2023/07/24 08:39:18;;;;;;;15.43;6.85;;;19.00;99.90;;;18.88;100.00;96398.72;5013367;28;20421;-38
2023/07/24 08:41:44;;;;;;;11.13;6.97;;;19.00;99.90;;;18.89;100.00;96379.03;5012612;28;20030;-38
2023/07/24 08:44:10;;;;;;;11.25;6.75;;;19.10;99.90;;;18.97;100.00;96361.50;5014233;28;20103;-38
2023/07/24 08:46:38;;;;;;;8.82;6.32;;;19.20;99.90;;;19.03;100.00;96340.44;5006205;28;20507;-38
2023/07/24 08:49:04;;;;;;;9.13;6.72;;;19.30;99.90;;;19.21;100.00;96353.16;5003559;28;20040;-39
2023/07/24 08:51:31;;;;;;;9.15;5.85;;;19.40;99.90;;;19.33;100.00;96357.41;5030723;28;20439;-38
2023/07/24 08:53:57;;;;;;;9.00;5.88;;;19.50;99.90;;;19.39;100.00;96356.03;5026585;28;20032;-38
2023/07/24 08:56:23;;;;;;;10.50;7.47;;;19.60;99.90;;;19.53;100.00;96366.31;5017383;28;20048;-38
2023/07/24 08:58:49;;;;;;;12.48;7.57;;;19.70;99.90;;;19.72;100.00;96351.28;5019591;28;20215;-38
2023/07/24 09:01:15;;;;;;;10.85;6.80;;;19.90;99.90;;;19.89;100.00;96341.78;5018401;28;20025;-38
2023/07/24 09:03:41;;;;;;;11.80;7.68;;;20.10;99.90;;;20.03;100.00;96349.38;5013466;28;20036;-39
2023/07/24 09:06:07;;;;;;;12.57;7.95;;;20.20;99.90;;;20.21;100.00;96362.91;5024796;28;20649;-39
2023/07/24 09:08:36;;;;;;;11.52;7.07;;;20.40;99.90;;;20.45;100.00;96361.59;5024259;28;20210;-38
2023/07/24 09:11:04;;;;;;;12.45;7.20;;;20.60;99.90;;;20.59;100.00;96371.84;5020062;28;20473;-38
2023/07/24 09:13:30;;;;;;;14.73;6.75;;;20.80;99.90;;;20.66;100.00;96369.50;5020425;28;20041;-39
2023/07/24 09:15:57;;;;;;;9.13;5.97;;;21.00;99.90;;;20.89;100.00;96369.97;5011026;28;20034;-38
2023/07/24 09:18:23;;;;;;;9.07;5.82;;;21.10;99.90;;;21.04;100.00;96371.19;5009962;28;20467;-38
2023/07/24 09:20:49;;;;;;;9.25;6.13;;;21.30;99.90;;;21.18;100.00;96369.88;5017447;28;20599;-37
2023/07/24 09:23:15;;;;;;;9.88;6.28;;;21.40;99.90;;;21.25;100.00;96375.50;5016769;28;20037;-37
2023/07/24 09:25:43;;;;;;;14.63;6.32;;;21.50;99.90;;;21.37;100.00;96371.59;5016019;28;20040;-36
2023/07/24 09:28:15;;;;;;;9.98;6.15;;;21.60;99.90;;;21.58;100.00;96375.91;5025942;28;20371;-37
2023/07/24 09:30:43;;;;;;;9.70;6.25;;;21.80;99.90;;;21.79;100.00;96371.13;5003599;28;20467;-37
2023/07/24 09:33:09;;;;;;;11.02;5.47;;;22.00;99.90;;;21.92;100.00;96365.38;5017462;28;20671;-37
2023/07/24 09:35:35;;;;;;;14.00;5.90;;;22.10;99.90;;;21.91;100.00;96366.34;5015131;28;20037;-37
2023/07/24 09:38:11;;;;;;;8.93;5.43;;;22.00;99.90;;;21.80;100.00;96370.09;5017888;28;20136;-37
2023/07/24 09:40:45;;;;;;;9.00;5.97;;;22.00;99.90;;;21.56;100.00;96383.28;5015230;28;20029;-37
2023/07/24 09:43:22;;;;;;;9.30;6.28;;;21.80;99.90;;;21.23;100.00;96372.97;5007483;28;20110;-37
2023/07/24 09:45:49;;;;;;;9.43;5.75;;;21.50;99.90;;;21.19;100.00;96371.53;5006368;28;20521;-37
2023/07/24 09:48:17;;;;;;;8.63;5.50;;;21.30;99.90;;;21.06;100.00;96392.50;5022104;28;20064;-37
2023/07/24 09:50:47;;;;;;;10.60;5.88;;;21.20;99.90;;;20.95;100.00;96388.16;5017767;28;20051;-37
2023/07/24 09:53:37;;;;;;;8.45;5.60;;;21.00;99.90;;;20.79;100.00;96389.59;5017641;28;20035;-37
2023/07/24 09:56:05;;;;;;;9.40;5.90;;;20.90;99.90;;;20.74;100.00;96413.28;5012328;28;20128;-37
2023/07/24 09:58:37;;;;;;;11.68;6.57;;;20.80;99.90;;;20.63;100.00;96424.19;5030763;28;20049;-37
2023/07/24 10:01:08;;;;;;;8.85;5.68;;;20.70;99.90;;;20.52;100.00;96433.19;5028029;28;20060;-37
2023/07/24 10:03:46;;;;;;;7.93;5.78;;;20.70;99.90;;;20.41;100.00;96431.50;5029542;28;20068;-37
2023/07/24 10:06:14;;;;;;;9.77;5.30;;;20.60;99.90;;;20.37;100.00;96435.44;5011835;28;20066;-37
2023/07/24 10:08:40;;;;;;;11.50;5.90;;;20.50;99.90;;;20.31;100.00;96435.16;5005569;28;20037;-37